createdAt,value
2019-05-16T00:02:10.819Z,8.41
2019-05-16T00:04:38.818Z,8.48
2019-05-16T00:07:08.092Z,8.31
2019-05-16T00:09:38.204Z,8.48
2019-05-16T00:12:06.127Z,8.45
2019-05-16T00:14:33.838Z,8.44
2019-05-16T00:17:01.929Z,8.33
2019-05-16T00:19:29.930Z,8.41
2019-05-16T00:21:58.174Z,8.49
2019-05-16T00:24:25.960Z,8.50
2019-05-16T00:26:53.921Z,8.51
2019-05-16T00:29:21.779Z,8.47
2019-05-16T00:31:49.898Z,8.48
2019-05-16T00:34:18.881Z,8.53
2019-05-16T00:36:48.663Z,8.49
2019-05-16T00:39:18.694Z,8.44
2019-05-16T00:41:47.899Z,8.39
2019-05-16T00:44:15.887Z,8.42
2019-05-16T00:46:43.752Z,8.42
2019-05-16T00:49:11.645Z,8.37
2019-05-16T00:51:39.732Z,8.33
2019-05-16T00:54:08.827Z,8.40
2019-05-16T00:56:38.349Z,8.40
2019-05-16T00:59:07.949Z,8.35
2019-05-16T01:01:38.867Z,8.33
2019-05-16T01:04:08.005Z,8.36
2019-05-16T01:06:38.065Z,8.36
2019-05-16T01:09:08.636Z,8.40
2019-05-16T01:11:38.192Z,8.49
2019-05-16T01:14:08.331Z,8.49
2019-05-16T01:16:38.221Z,8.50
2019-05-16T01:19:08.299Z,8.33
2019-05-16T01:21:36.057Z,8.42
2019-05-16T01:24:03.824Z,8.42
2019-05-16T01:26:31.860Z,8.40
2019-05-16T01:28:59.684Z,8.49
2019-05-16T01:31:28.101Z,8.45
2019-05-16T01:33:58.241Z,8.40
2019-05-16T01:36:36.512Z,8.46
2019-05-16T01:38:55.801Z,8.50
2019-05-16T01:41:23.796Z,8.53
2019-05-16T01:43:51.814Z,8.51
2019-05-16T01:46:19.834Z,8.63
2019-05-16T01:48:48.457Z,8.59
2019-05-16T01:51:18.387Z,8.57
2019-05-16T01:53:48.785Z,8.61
2019-05-16T01:56:17.952Z,8.59
2019-05-16T01:58:46.106Z,8.58
2019-05-16T02:01:15.885Z,8.62
2019-05-16T02:03:44.073Z,8.60
2019-05-16T02:06:11.917Z,8.67
2019-05-16T02:08:39.878Z,8.62
2019-05-16T02:11:08.579Z,8.69
2019-05-16T02:13:38.891Z,8.63
2019-05-16T02:16:08.301Z,8.65
2019-05-16T02:18:38.197Z,8.72
2019-05-16T02:21:07.890Z,8.71
2019-05-16T02:23:38.020Z,8.77
2019-05-16T02:26:07.841Z,8.70
2019-05-16T02:28:39.949Z,8.60
2019-05-16T02:31:05.667Z,8.55
2019-05-16T02:33:33.722Z,8.69
2019-05-16T02:36:01.875Z,8.63
2019-05-16T02:38:31.706Z,8.77
2019-05-16T02:41:03.278Z,8.89
2019-05-16T02:43:31.520Z,8.83
2019-05-16T02:46:01.537Z,8.86
2019-05-16T02:48:31.674Z,8.81
2019-05-16T02:51:01.793Z,8.74
2019-05-16T02:53:30.989Z,8.72
2019-05-16T02:56:01.351Z,8.75
2019-05-16T02:58:30.685Z,8.71
2019-05-16T03:01:01.794Z,8.70
2019-05-16T03:03:31.585Z,8.70
2019-05-16T03:06:01.457Z,8.68
2019-05-16T03:08:32.036Z,8.68
2019-05-16T03:11:01.016Z,8.71
2019-05-16T03:13:31.180Z,8.68
2019-05-16T03:16:00.915Z,8.70
2019-05-16T03:18:30.966Z,8.73
2019-05-16T03:21:00.963Z,8.74
2019-05-16T03:23:30.814Z,8.70
2019-05-16T03:26:00.950Z,8.63
2019-05-16T03:28:30.710Z,8.67
2019-05-16T03:31:04.281Z,8.72
2019-05-16T03:33:35.036Z,8.64
2019-05-16T03:36:03.993Z,8.64
2019-05-16T03:38:30.867Z,8.68
2019-05-16T03:41:01.026Z,8.69
2019-05-16T03:43:30.981Z,8.64
2019-05-16T03:46:02.453Z,8.74
2019-05-16T03:48:31.576Z,8.75
2019-05-16T03:51:00.807Z,8.75
2019-05-16T03:53:31.851Z,8.74
2019-05-16T03:56:01.900Z,8.74
2019-05-16T03:58:30.980Z,8.78
2019-05-16T04:01:02.294Z,8.82
2019-05-16T04:03:32.981Z,8.88
2019-05-16T04:06:01.221Z,8.90
2019-05-16T04:08:31.045Z,8.92
2019-05-16T04:11:01.245Z,8.91
2019-05-16T04:13:31.361Z,8.95
2019-05-16T04:16:01.362Z,8.93
2019-05-16T04:18:31.845Z,8.99
2019-05-16T04:21:01.044Z,9.00
2019-05-16T04:23:31.426Z,9.01
2019-05-16T04:26:00.743Z,9.08
2019-05-16T04:28:31.884Z,9.11
2019-05-16T04:31:01.842Z,9.13
2019-05-16T04:33:30.847Z,9.16
2019-05-16T04:36:01.326Z,9.19
2019-05-16T04:38:39.618Z,9.27
2019-05-16T04:41:01.468Z,9.32
2019-05-16T04:43:31.531Z,9.32
2019-05-16T04:46:01.322Z,9.38
2019-05-16T04:48:31.127Z,9.42
2019-05-16T04:51:01.023Z,9.62
2019-05-16T04:53:31.318Z,9.59
2019-05-16T04:56:01.419Z,9.64
2019-05-16T04:58:31.418Z,9.69
2019-05-16T05:01:01.280Z,9.62
2019-05-16T05:03:31.416Z,9.78
2019-05-16T05:06:00.560Z,9.96
2019-05-16T05:08:30.783Z,10.01
2019-05-16T05:11:01.164Z,10.05
2019-05-16T05:13:30.512Z,10.11
2019-05-16T05:15:57.837Z,10.15
2019-05-16T05:18:25.979Z,10.19
2019-05-16T05:20:53.802Z,10.40
2019-05-16T05:23:21.711Z,10.66
2019-05-16T05:25:51.275Z,10.74
2019-05-16T05:28:21.061Z,10.73
2019-05-16T05:30:50.305Z,10.74
2019-05-16T05:33:20.992Z,10.69
2019-05-16T05:35:50.695Z,10.69
2019-05-16T05:38:21.243Z,10.73
2019-05-16T05:40:51.003Z,10.67
2019-05-16T05:43:21.340Z,10.66
2019-05-16T05:45:51.070Z,10.75
2019-05-16T05:48:21.186Z,10.71
2019-05-16T05:50:50.675Z,10.82
2019-05-16T05:53:20.431Z,10.79
2019-05-16T05:55:50.669Z,10.76
2019-05-16T05:58:20.592Z,10.81
2019-05-16T06:00:52.049Z,10.72
2019-05-16T06:03:22.470Z,10.83
2019-05-16T06:05:50.431Z,10.80
2019-05-16T06:08:20.116Z,10.79
2019-05-16T06:10:50.470Z,10.88
2019-05-16T06:13:20.687Z,10.87
2019-05-16T06:15:48.024Z,10.96
2019-05-16T06:18:16.045Z,11.01
2019-05-16T06:20:43.966Z,11.00
2019-05-16T06:23:11.805Z,10.93
2019-05-16T06:25:40.565Z,11.04
2019-05-16T06:28:10.619Z,10.97
2019-05-16T06:30:40.731Z,10.94
2019-05-16T06:33:10.201Z,11.03
2019-05-16T06:35:40.162Z,10.99
2019-05-16T06:38:09.980Z,10.98
2019-05-16T06:40:40.087Z,11.04
2019-05-16T06:43:10.907Z,11.25
2019-05-16T06:45:40.222Z,11.38
2019-05-16T06:48:10.030Z,11.46
2019-05-16T06:50:40.082Z,11.44
2019-05-16T06:53:10.235Z,11.61
2019-05-16T06:55:37.581Z,11.87
2019-05-16T06:58:05.515Z,12.06
2019-05-16T07:00:33.506Z,12.07
2019-05-16T07:03:01.432Z,12.08
2019-05-16T07:05:29.965Z,12.14
2019-05-16T07:07:59.812Z,12.34
2019-05-16T07:10:28.014Z,12.54
2019-05-16T07:12:55.881Z,12.61
2019-05-16T07:15:23.683Z,12.97
2019-05-16T07:17:51.685Z,13.34
2019-05-16T07:20:20.938Z,13.55
2019-05-16T07:22:50.278Z,13.81
2019-05-16T07:25:20.645Z,13.98
2019-05-16T07:27:51.036Z,14.02
2019-05-16T07:30:19.979Z,14.09
2019-05-16T07:32:50.023Z,14.10
2019-05-16T07:35:20.497Z,14.15
2019-05-16T07:37:49.966Z,14.27
2019-05-16T07:40:23.733Z,14.32
2019-05-16T07:42:50.777Z,14.27
2019-05-16T07:45:20.426Z,14.63
2019-05-16T07:47:50.662Z,15.00
2019-05-16T07:50:20.161Z,14.98
2019-05-16T07:52:50.842Z,14.89
2019-05-16T07:55:20.587Z,14.78
2019-05-16T07:57:47.877Z,14.79
2019-05-16T08:00:16.027Z,14.64
2019-05-16T08:02:44.433Z,14.99
2019-05-16T08:05:12.732Z,15.08
2019-05-16T08:07:40.932Z,14.97
2019-05-16T08:10:11.034Z,15.31
2019-05-16T08:12:40.750Z,15.66
2019-05-16T08:15:10.186Z,15.77
2019-05-16T08:17:44.140Z,15.71
2019-05-16T08:20:07.518Z,15.83
2019-05-16T08:22:35.150Z,15.73
2019-05-16T08:25:03.032Z,15.55
2019-05-16T08:27:31.495Z,16.10
2019-05-16T08:30:02.472Z,16.39
2019-05-16T08:32:31.274Z,16.46
2019-05-16T08:35:01.143Z,16.18
2019-05-16T08:37:41.342Z,15.91
2019-05-16T08:40:00.396Z,16.00
2019-05-16T08:42:32.334Z,16.23
2019-05-16T08:45:01.866Z,16.51
2019-05-16T08:47:32.184Z,16.84
2019-05-16T08:50:00.893Z,17.26
2019-05-16T08:52:31.559Z,17.66
2019-05-16T08:55:03.348Z,17.92
2019-05-16T08:57:32.721Z,18.41
2019-05-16T09:00:01.550Z,18.71
2019-05-16T09:02:35.799Z,19.04
2019-05-16T09:05:04.390Z,19.00
2019-05-16T09:07:31.605Z,19.10
2019-05-16T09:10:00.251Z,19.06
2019-05-16T09:12:27.950Z,18.74
2019-05-16T09:14:59.417Z,18.54
2019-05-16T09:17:27.687Z,18.08
2019-05-16T09:19:57.519Z,18.79
2019-05-16T09:22:24.436Z,18.69
2019-05-16T09:24:52.033Z,18.79
2019-05-16T09:27:19.627Z,18.52
2019-05-16T09:29:47.366Z,18.56
2019-05-16T09:32:17.890Z,18.84
2019-05-16T09:34:47.651Z,19.20
2019-05-16T09:37:14.043Z,19.87
2019-05-16T09:39:41.555Z,20.25
2019-05-16T09:42:09.214Z,21.11
2019-05-16T09:44:37.106Z,21.82
2019-05-16T09:47:07.405Z,21.90
2019-05-16T09:49:36.850Z,21.58
2019-05-16T09:52:03.890Z,21.78
2019-05-16T09:54:31.454Z,21.86
2019-05-16T09:56:59.083Z,22.73
2019-05-16T09:59:26.647Z,23.07
2019-05-16T10:01:56.936Z,23.37
2019-05-16T10:04:26.558Z,23.26
2019-05-16T10:06:53.882Z,23.98
2019-05-16T10:09:22.484Z,24.52
2019-05-16T10:12:07.182Z,24.63
2019-05-16T10:14:22.174Z,24.46
2019-05-16T10:16:51.796Z,23.81
2019-05-16T10:19:19.823Z,24.02
2019-05-16T10:21:47.913Z,24.69
2019-05-16T10:24:16.036Z,24.29
2019-05-16T10:26:46.552Z,24.05
2019-05-16T10:29:14.014Z,23.63
2019-05-16T10:31:51.658Z,22.53
2019-05-16T10:34:12.028Z,21.42
2019-05-16T10:36:40.107Z,20.96
2019-05-16T10:39:08.301Z,19.96
2019-05-16T10:41:37.115Z,19.25
2019-05-16T10:44:06.237Z,18.94
2019-05-16T10:46:34.237Z,18.53
2019-05-16T10:49:02.123Z,17.74
2019-05-16T10:51:30.235Z,17.37
2019-05-16T10:54:09.085Z,17.23
2019-05-16T10:56:28.148Z,17.27
2019-05-16T10:59:25.946Z,16.80
2019-05-16T11:01:28.649Z,16.45
2019-05-16T11:03:56.809Z,16.33
2019-05-16T11:06:29.174Z,16.36
2019-05-16T11:08:57.161Z,16.51
2019-05-16T11:11:27.333Z,16.54
2019-05-16T11:13:54.659Z,16.37
2019-05-16T11:16:22.229Z,16.45
2019-05-16T11:18:49.799Z,16.60
2019-05-16T11:21:19.309Z,16.74
2019-05-16T11:23:47.163Z,16.68
2019-05-16T11:26:15.979Z,16.79
2019-05-16T11:28:43.542Z,16.60
2019-05-16T11:31:11.261Z,16.54
2019-05-16T11:33:39.006Z,16.68
2019-05-16T11:36:08.261Z,16.64
2019-05-16T11:38:37.822Z,16.58
2019-05-16T11:41:07.377Z,16.82
2019-05-16T11:43:36.698Z,17.05
2019-05-16T11:46:04.793Z,17.23
2019-05-16T11:48:32.548Z,17.11
2019-05-16T11:51:00.328Z,16.92
2019-05-16T11:53:28.448Z,16.96
2019-05-16T11:56:01.293Z,16.88
2019-05-16T11:58:26.641Z,16.91
2019-05-16T12:00:57.257Z,16.84
2019-05-16T12:03:24.024Z,16.72
2019-05-16T12:05:51.688Z,16.78
2019-05-16T12:08:19.612Z,16.68
2019-05-16T12:10:47.768Z,16.97
2019-05-16T12:13:25.247Z,17.04
2019-05-16T12:15:45.508Z,17.16
2019-05-16T12:18:13.116Z,17.25
2019-05-16T12:20:40.835Z,17.16
2019-05-16T12:23:08.537Z,16.77
2019-05-16T12:25:36.867Z,16.59
2019-05-16T12:28:07.863Z,16.48
2019-05-16T12:30:37.700Z,16.40
2019-05-16T12:33:07.126Z,16.33
2019-05-16T12:35:36.920Z,16.32
2019-05-16T12:38:07.785Z,16.60
2019-05-16T12:40:34.116Z,16.83
2019-05-16T12:43:02.056Z,17.13
2019-05-16T12:45:29.989Z,17.47
2019-05-16T12:47:59.746Z,17.81
2019-05-16T12:50:28.942Z,17.76
2019-05-16T12:52:56.989Z,17.92
2019-05-16T12:55:26.997Z,18.10
2019-05-16T12:58:11.643Z,18.24
2019-05-16T13:00:27.497Z,18.46
2019-05-16T13:02:54.511Z,18.33
2019-05-16T13:05:22.020Z,18.13
2019-05-16T13:07:49.562Z,18.09
2019-05-16T13:10:17.589Z,18.10
2019-05-16T13:12:45.172Z,17.85
2019-05-16T13:15:12.787Z,17.87
2019-05-16T13:17:40.376Z,17.84
2019-05-16T13:20:08.261Z,17.64
2019-05-16T13:22:38.468Z,17.51
2019-05-16T13:25:07.342Z,17.39
2019-05-16T13:27:37.357Z,17.30
2019-05-16T13:30:07.300Z,17.08
2019-05-16T13:32:37.507Z,16.99
2019-05-16T13:35:07.855Z,16.82
2019-05-16T13:37:36.023Z,16.48
2019-05-16T13:40:04.446Z,16.37
2019-05-16T13:42:32.154Z,16.17
2019-05-16T13:45:01.653Z,15.91
2019-05-16T13:47:30.102Z,15.73
2019-05-16T13:49:58.006Z,15.60
2019-05-16T13:52:28.297Z,15.50
2019-05-16T13:54:56.505Z,15.18
2019-05-16T13:57:28.092Z,15.05
2019-05-16T13:59:56.747Z,14.99
2019-05-16T14:02:26.723Z,14.90
2019-05-16T14:04:56.846Z,14.77
2019-05-16T14:07:25.062Z,14.60
2019-05-16T14:09:53.090Z,14.51
2019-05-16T14:12:21.128Z,14.48
2019-05-16T14:14:49.046Z,14.46
2019-05-16T14:17:17.953Z,14.44
2019-05-16T14:19:47.920Z,14.38
2019-05-16T14:22:17.540Z,14.40
2019-05-16T14:24:47.923Z,14.37
2019-05-16T14:27:14.488Z,14.32
2019-05-16T14:29:42.183Z,14.35
2019-05-16T14:32:10.638Z,14.36
2019-05-16T14:34:38.948Z,14.34
2019-05-16T14:37:07.329Z,14.22
2019-05-16T14:39:38.451Z,14.21
2019-05-16T14:42:04.548Z,14.02
2019-05-16T14:44:32.196Z,13.91
2019-05-16T14:46:59.756Z,13.79
2019-05-16T14:49:28.773Z,13.71
2019-05-16T14:51:58.012Z,13.64
2019-05-16T14:54:26.846Z,13.59
2019-05-16T14:57:00.203Z,13.59
2019-05-16T14:59:27.873Z,13.58
2019-05-16T15:01:57.990Z,13.56
2019-05-16T15:04:29.838Z,13.45
2019-05-16T15:06:54.212Z,13.42
2019-05-16T15:09:22.041Z,13.42
2019-05-16T15:11:49.867Z,13.33
2019-05-16T15:14:17.759Z,13.23
2019-05-16T15:16:48.599Z,13.22
2019-05-16T15:19:17.398Z,13.08
2019-05-16T15:21:47.662Z,13.02
2019-05-16T15:24:17.532Z,12.99
2019-05-16T15:26:47.255Z,12.78
2019-05-16T15:29:16.470Z,12.71
2019-05-16T15:31:46.768Z,12.90
2019-05-16T15:34:14.514Z,12.87
2019-05-16T15:36:43.612Z,12.78
2019-05-16T15:39:11.641Z,12.92
2019-05-16T15:41:39.418Z,12.87
2019-05-16T15:44:07.979Z,12.87
2019-05-16T15:46:37.167Z,12.90
2019-05-16T15:49:09.811Z,12.79
2019-05-16T15:51:36.905Z,12.77
2019-05-16T15:54:06.739Z,12.65
2019-05-16T15:56:37.266Z,12.76
2019-05-16T15:59:06.994Z,12.79
2019-05-16T16:01:37.627Z,12.83
2019-05-16T16:04:06.891Z,12.81
2019-05-16T16:06:34.580Z,12.86
2019-05-16T16:09:06.772Z,12.88
2019-05-16T16:11:34.095Z,12.78
2019-05-16T16:14:03.178Z,12.61
2019-05-16T16:16:31.369Z,12.76
2019-05-16T16:18:59.450Z,12.75
2019-05-16T16:21:27.615Z,12.74
2019-05-16T16:23:57.298Z,12.72
2019-05-16T16:26:26.806Z,12.72
2019-05-16T16:28:55.116Z,12.76
2019-05-16T16:31:23.300Z,12.76
2019-05-16T16:33:51.281Z,12.70
2019-05-16T16:36:19.531Z,12.76
2019-05-16T16:38:47.849Z,12.66
2019-05-16T16:41:17.069Z,12.74
2019-05-16T16:43:47.519Z,12.63
2019-05-16T16:46:16.833Z,12.65
2019-05-16T16:48:45.004Z,12.64
2019-05-16T16:51:12.955Z,12.64
2019-05-16T16:53:40.919Z,12.60
2019-05-16T16:56:09.131Z,12.58
2019-05-16T16:58:37.461Z,12.54
2019-05-16T17:01:07.304Z,12.60
2019-05-16T17:03:36.357Z,12.61
2019-05-16T17:06:04.630Z,12.64
2019-05-16T17:08:32.638Z,12.67
2019-05-16T17:11:00.649Z,12.64
2019-05-16T17:13:28.303Z,12.69
2019-05-16T17:15:56.879Z,12.65
2019-05-16T17:18:27.387Z,12.70
2019-05-16T17:20:57.000Z,12.70
2019-05-16T17:23:26.424Z,12.77
2019-05-16T17:25:56.430Z,12.74
2019-05-16T17:28:24.507Z,12.60
2019-05-16T17:30:52.419Z,12.60
2019-05-16T17:33:20.128Z,12.62
2019-05-16T17:35:49.023Z,12.63
2019-05-16T17:38:17.407Z,12.53
2019-05-16T17:40:46.472Z,12.49
2019-05-16T17:43:16.395Z,12.48
2019-05-16T17:45:43.963Z,12.41
2019-05-16T17:48:12.057Z,12.42
2019-05-16T17:50:39.703Z,12.38
2019-05-16T17:53:07.989Z,12.33
2019-05-16T17:55:37.207Z,12.25
2019-05-16T17:58:08.450Z,12.27
2019-05-16T18:00:34.973Z,12.23
2019-05-16T18:03:03.109Z,12.14
2019-05-16T18:05:31.508Z,12.24
2019-05-16T18:07:59.499Z,12.20
2019-05-16T18:10:27.533Z,12.28
2019-05-16T18:12:56.824Z,12.26
2019-05-16T18:15:25.366Z,12.25
2019-05-16T18:17:53.617Z,12.29
2019-05-16T18:20:22.477Z,12.27
2019-05-16T18:22:50.600Z,12.30
2019-05-16T18:25:18.518Z,12.26
2019-05-16T18:27:46.533Z,12.27
2019-05-16T18:30:16.736Z,12.27
2019-05-16T18:32:45.729Z,12.26
2019-05-16T18:35:16.581Z,12.14
2019-05-16T18:37:46.288Z,12.21
2019-05-16T18:40:16.389Z,12.17
2019-05-16T18:42:44.069Z,11.99
2019-05-16T18:45:12.139Z,12.10
2019-05-16T18:47:40.255Z,12.11
2019-05-16T18:50:09.360Z,12.14
2019-05-16T18:52:37.780Z,12.16
2019-05-16T18:55:08.394Z,12.22
2019-05-16T18:57:37.736Z,12.22
2019-05-16T19:00:07.038Z,12.27
2019-05-16T19:02:36.928Z,12.27
2019-05-16T19:05:06.914Z,12.36
2019-05-16T19:07:37.001Z,12.39
2019-05-16T19:10:06.844Z,12.36
2019-05-16T19:12:37.179Z,12.40
2019-05-16T19:15:07.121Z,12.32
2019-05-16T19:17:35.382Z,12.23
2019-05-16T19:20:03.392Z,12.36
2019-05-16T19:22:31.883Z,12.34
2019-05-16T19:24:59.837Z,12.29
2019-05-16T19:27:27.882Z,12.27
2019-05-16T19:29:57.210Z,12.24
2019-05-16T19:32:25.245Z,12.31
2019-05-16T19:34:53.190Z,12.26
2019-05-16T19:37:21.291Z,12.24
2019-05-16T19:39:49.301Z,12.33
2019-05-16T19:42:17.408Z,12.31
2019-05-16T19:44:46.424Z,12.28
2019-05-16T19:47:14.554Z,12.27
2019-05-16T19:49:42.270Z,12.25
2019-05-16T19:52:10.202Z,12.20
2019-05-16T19:54:38.093Z,12.18
2019-05-16T19:57:07.249Z,12.11
2019-05-16T19:59:36.674Z,12.15
2019-05-16T20:02:04.913Z,12.10
2019-05-16T20:04:32.842Z,12.09
2019-05-16T20:07:01.010Z,12.01
2019-05-16T20:09:30.341Z,11.95
2019-05-16T20:11:58.480Z,11.82
2019-05-16T20:14:27.293Z,11.77
2019-05-16T20:16:56.642Z,11.72
2019-05-16T20:19:26.676Z,11.68
2019-05-16T20:21:54.666Z,11.69
2019-05-16T20:24:22.414Z,11.63
2019-05-16T20:26:50.058Z,11.58
2019-05-16T20:29:17.794Z,11.55
2019-05-16T20:31:47.417Z,11.54
2019-05-16T20:34:17.350Z,11.48
2019-05-16T20:36:46.493Z,11.46
2019-05-16T20:39:16.706Z,11.47
2019-05-16T20:41:44.189Z,11.52
2019-05-16T20:44:11.837Z,11.46
2019-05-16T20:46:39.657Z,11.45
2019-05-16T20:49:07.830Z,11.45
2019-05-16T20:51:37.608Z,11.46
2019-05-16T20:54:07.081Z,11.39
2019-05-16T20:56:35.086Z,11.44
2019-05-16T20:59:02.854Z,11.40
2019-05-16T21:01:30.966Z,11.37
2019-05-16T21:03:58.902Z,11.29
2019-05-16T21:06:27.091Z,11.21
2019-05-16T21:08:57.460Z,11.20
2019-05-16T21:11:26.431Z,11.11
2019-05-16T21:13:56.532Z,11.11
2019-05-16T21:16:26.841Z,11.02
2019-05-16T21:18:54.468Z,10.97
2019-05-16T21:21:22.354Z,10.89
2019-05-16T21:23:50.206Z,10.83
2019-05-16T21:26:19.173Z,10.81
2019-05-16T21:28:47.141Z,10.77
2019-05-16T21:31:16.423Z,10.75
2019-05-16T21:33:46.936Z,10.74
2019-05-16T21:36:16.093Z,10.73
2019-05-16T21:38:46.923Z,10.77
2019-05-16T21:41:16.821Z,10.76
2019-05-16T21:43:46.982Z,10.70
2019-05-16T21:46:17.123Z,10.65
2019-05-16T21:48:47.176Z,10.65
2019-05-16T21:51:17.034Z,10.59
2019-05-16T21:53:44.109Z,10.67
2019-05-16T21:56:11.796Z,10.62
2019-05-16T21:58:39.911Z,10.62
2019-05-16T22:01:09.361Z,10.54
2019-05-16T22:03:39.127Z,10.55
2019-05-16T22:06:08.033Z,10.60
2019-05-16T22:08:38.033Z,10.63
2019-05-16T22:11:07.728Z,10.55
2019-05-16T22:13:37.756Z,10.53
2019-05-16T22:16:08.082Z,10.55
2019-05-16T22:18:38.120Z,10.53
2019-05-16T22:21:07.594Z,10.55
2019-05-16T22:23:37.345Z,10.44
2019-05-16T22:26:07.678Z,10.42
2019-05-16T22:28:37.383Z,10.49
2019-05-16T22:31:07.453Z,10.49
2019-05-16T22:33:37.265Z,10.54
2019-05-16T22:36:06.857Z,10.54
2019-05-16T22:38:34.772Z,10.54
2019-05-16T22:41:02.397Z,10.48
2019-05-16T22:43:30.391Z,10.52
2019-05-16T22:45:58.227Z,10.55
2019-05-16T22:48:26.647Z,10.47
2019-05-16T22:50:56.493Z,10.52
2019-05-16T22:53:27.043Z,10.46
2019-05-16T22:55:56.538Z,10.42
2019-05-16T22:58:26.765Z,10.40
2019-05-16T23:00:54.127Z,10.42
2019-05-16T23:03:22.283Z,10.42
2019-05-16T23:05:50.141Z,10.42
2019-05-16T23:08:18.056Z,10.39
2019-05-16T23:10:46.856Z,10.38
2019-05-16T23:13:16.915Z,10.40
2019-05-16T23:15:44.895Z,10.50
2019-05-16T23:18:13.151Z,10.48
2019-05-16T23:20:41.037Z,10.45
2019-05-16T23:23:09.076Z,10.55
2019-05-16T23:25:37.409Z,10.49
2019-05-16T23:28:07.760Z,10.46
2019-05-16T23:30:36.583Z,10.45
2019-05-16T23:33:06.895Z,10.42
2019-05-16T23:35:34.653Z,10.53
2019-05-16T23:38:14.661Z,10.45
2019-05-16T23:40:32.338Z,10.40
2019-05-16T23:43:00.362Z,10.37
2019-05-16T23:45:28.280Z,10.33
2019-05-16T23:47:56.436Z,10.34
2019-05-16T23:50:24.402Z,10.35
2019-05-16T23:52:52.340Z,10.31
2019-05-16T23:55:20.125Z,10.26
2019-05-16T23:57:48.192Z,10.30
